Time;durP1;ratioP1;P1;durP2;ratioP2;P2;SDS_P1;SDS_P2;PMS_P1;PMS_P2;Temp;Humidity;BMP_temperature;BMP_pressure;BME280_temperature;BME280_humidity;BME280_pressure;Samples;Min_cycle;Max_cycle;Signal;HPM_P1;HPM_P2
2023/07/20 00:01:21;;;;;;;7.78;4.43;;;;;;;29.87;41.30;99202.44;4838877;29;20030;-43
2023/07/20 00:03:54;;;;;;;7.28;4.57;;;;;;;30.00;40.58;99204.00;4839027;29;20040;-43
2023/07/20 00:06:20;;;;;;;8.30;4.63;;;;;;;29.40;41.98;99214.69;4838884;29;20031;-42
2023/07/20 00:08:45;;;;;;;7.05;4.53;;;;;;;29.13;42.25;99227.13;4838886;29;20038;-42
2023/07/20 00:11:13;;;;;;;9.35;4.90;;;;;;;29.33;42.16;99219.13;4838858;29;20022;-43
2023/07/20 00:13:39;;;;;;;7.38;4.85;;;;;;;29.37;42.18;99217.31;4838800;29;20495;-44
2023/07/20 00:16:04;;;;;;;5.75;4.35;;;;;;;29.52;41.40;99215.81;4838421;29;20090;-42
2023/07/20 00:18:30;;;;;;;7.57;4.32;;;;;;;29.54;41.15;99213.53;4839100;29;20037;-46
2023/07/20 00:20:55;;;;;;;6.18;4.50;;;;;;;29.74;40.52;99198.94;4839070;29;20036;-42
2023/07/20 00:23:22;;;;;;;7.47;4.35;;;;;;;29.76;40.31;99182.16;4839028;29;20086;-41
2023/07/20 00:25:48;;;;;;;5.28;4.18;;;;;;;29.96;39.64;99166.66;4838790;29;20076;-42
2023/07/20 00:28:13;;;;;;;5.18;4.25;;;;;;;29.59;40.04;99153.81;4838696;29;20180;-41
2023/07/20 00:30:39;;;;;;;5.38;4.20;;;;;;;29.44;40.31;99144.34;4838561;29;20163;-41
2023/07/20 00:33:04;;;;;;;6.78;4.32;;;;;;;29.44;40.29;99138.06;4838591;29;20120;-42
2023/07/20 00:35:30;;;;;;;8.38;4.43;;;;;;;29.71;39.63;99142.03;4838257;29;20034;-45
2023/07/20 00:37:55;;;;;;;6.72;4.43;;;;;;;29.92;39.21;99141.09;4838514;29;20407;-43
2023/07/20 00:40:21;;;;;;;7.47;4.40;;;;;;;30.12;38.72;99128.31;4838873;29;20029;-45
2023/07/20 00:42:46;;;;;;;8.73;4.75;;;;;;;30.22;38.06;99122.34;4838534;29;20022;-43
2023/07/20 00:45:11;;;;;;;8.73;4.30;;;;;;;29.60;38.93;99119.75;4838184;29;20502;-43
2023/07/20 00:47:37;;;;;;;6.32;4.30;;;;;;;29.23;39.83;99102.59;4838351;29;20197;-42
2023/07/20 00:50:04;;;;;;;8.88;4.13;;;;;;;29.42;39.40;99094.56;4838590;29;20022;-43
2023/07/20 00:52:29;;;;;;;5.15;4.28;;;;;;;29.41;39.74;99106.66;4838384;29;20030;-41
2023/07/20 00:54:56;;;;;;;9.00;4.45;;;;;;;29.80;39.21;99120.00;4838773;29;20026;-42
2023/07/20 00:57:23;;;;;;;5.03;4.07;;;;;;;30.16;38.75;99129.25;4838672;29;20490;-41
2023/07/20 00:59:49;;;;;;;6.10;4.28;;;;;;;30.47;37.57;99125.00;4839057;29;20483;-42
2023/07/20 01:02:14;;;;;;;7.53;4.03;;;;;;;30.87;36.81;99127.59;4839139;29;20028;-42
2023/07/20 01:04:40;;;;;;;5.55;4.07;;;;;;;31.44;35.64;99119.13;4839256;29;20127;-43
2023/07/20 01:07:17;;;;;;;6.47;4.10;;;;;;;30.82;36.67;99122.34;4839090;29;20028;-42
2023/07/20 01:09:45;;;;;;;5.78;4.07;;;;;;;30.51;37.47;99121.19;4839122;29;20037;-42
2023/07/20 01:12:21;;;;;;;8.55;4.10;;;;;;;30.38;37.83;99114.97;4838927;29;20025;-42
2023/07/20 01:14:46;;;;;;;7.93;4.32;;;;;;;30.24;38.28;99119.25;4839116;29;20041;-43
2023/07/20 01:17:12;;;;;;;6.80;4.00;;;;;;;30.42;38.05;99112.31;4838774;29;20026;-42
2023/07/20 01:19:38;;;;;;;8.30;4.72;;;;;;;30.14;38.50;99096.66;4838890;29;20036;-42
2023/07/20 01:22:12;;;;;;;7.10;4.43;;;;;;;30.70;37.75;99098.53;4838813;29;20026;-43
2023/07/20 01:24:49;;;;;;;7.13;4.38;;;;;;;29.75;38.79;99095.56;4838832;29;20026;-42
2023/07/20 01:27:30;;;;;;;10.15;4.80;;;;;;;28.77;41.18;99086.25;4839469;29;20440;-42
2023/07/20 01:30:14;;;;;;;6.95;4.47;;;;;;;29.29;40.36;99086.72;4860643;29;20109;-43
2023/07/20 01:32:42;;;;;;;5.95;4.40;;;;;;;29.46;39.07;99075.50;4860814;29;20456;-42
2023/07/20 01:35:11;;;;;;;10.60;4.35;;;;;;;29.71;38.69;99078.97;4860935;29;20113;-41
2023/07/20 01:37:38;;;;;;;9.20;4.30;;;;;;;30.12;37.87;99079.75;4860774;29;20499;-43
2023/07/20 01:40:04;;;;;;;8.63;4.28;;;;;;;30.76;36.69;99072.38;4859931;29;20055;-44
2023/07/20 01:42:29;;;;;;;10.75;4.35;;;;;;;30.02;37.83;99070.09;4860785;29;20033;-43
2023/07/20 01:44:55;;;;;;;7.80;4.22;;;;;;;29.92;38.17;99078.00;4860862;29;20401;-42
2023/07/20 01:47:20;;;;;;;6.03;4.13;;;;;;;30.10;38.02;99086.72;4860962;29;20029;-43
2023/07/20 01:49:46;;;;;;;10.02;4.20;;;;;;;30.41;37.50;99083.28;4860863;29;20022;-41
2023/07/20 01:52:11;;;;;;;4.95;4.00;;;;;;;30.75;36.74;99072.78;4860955;29;20477;-41
2023/07/20 01:54:37;;;;;;;11.93;4.38;;;;;;;30.99;36.33;99067.09;4860473;29;20418;-41
2023/07/20 01:57:04;;;;;;;6.95;4.20;;;;;;;31.42;35.39;99072.75;4860535;29;20101;-42
2023/07/20 01:59:29;;;;;;;5.40;3.80;;;;;;;31.05;36.00;99070.34;4860177;29;20490;-42
2023/07/20 02:01:54;;;;;;;9.43;4.53;;;;;;;30.71;36.73;99078.16;4860188;29;20097;-41
2023/07/20 02:04:20;;;;;;;5.75;3.95;;;;;;;30.64;37.49;99080.72;4860291;29;20151;-43
2023/07/20 02:06:45;;;;;;;6.15;4.03;;;;;;;30.48;37.57;99072.50;4860343;29;20017;-46
2023/07/20 02:09:11;;;;;;;8.88;4.18;;;;;;;30.55;37.78;99083.63;4860359;29;20033;-44
2023/07/20 02:11:36;;;;;;;5.63;3.83;;;;;;;30.83;36.72;99084.72;4860164;29;20028;-46
2023/07/20 02:14:01;;;;;;;5.07;3.63;;;;;;;31.11;36.17;99079.13;4860329;29;20029;-46
2023/07/20 02:16:27;;;;;;;5.68;3.92;;;;;;;31.39;35.91;99087.22;4860303;29;20025;-43
2023/07/20 02:18:53;;;;;;;6.22;4.20;;;;;;;30.85;36.67;99079.66;4860111;29;20032;-42
2023/07/20 02:21:18;;;;;;;7.47;4.32;;;;;;;30.77;36.62;99087.72;4860295;29;20037;-42
2023/07/20 02:23:44;;;;;;;10.10;3.72;;;;;;;30.82;36.68;99094.09;4860120;29;20034;-41
2023/07/20 02:26:09;;;;;;;6.97;4.00;;;;;;;30.90;37.22;99084.91;4859581;29;20029;-43
2023/07/20 02:28:35;;;;;;;11.70;5.38;;;;;;;30.15;39.29;99097.44;4859607;29;20566;-42
2023/07/20 02:31:00;;;;;;;8.93;4.70;;;;;;;29.81;39.13;99100.44;4859758;29;20675;-41
2023/07/20 02:33:26;;;;;;;9.75;4.50;;;;;;;29.87;38.50;99105.66;4859526;29;20022;-41
2023/07/20 02:35:52;;;;;;;5.53;4.32;;;;;;;29.46;39.53;99091.94;4859447;29;20190;-42
2023/07/20 02:38:17;;;;;;;9.25;4.90;;;;;;;29.21;39.96;99088.44;4859639;29;20034;-42
2023/07/20 02:40:43;;;;;;;8.32;4.80;;;;;;;28.91;40.19;99063.22;4859562;29;20052;-42
2023/07/20 02:43:09;;;;;;;5.70;4.22;;;;;;;29.29;39.93;99078.50;4859736;29;20025;-42
2023/07/20 02:45:39;;;;;;;7.57;4.50;;;;;;;29.35;39.56;99071.63;4859987;29;20052;-41
2023/07/20 02:48:07;;;;;;;7.88;4.95;;;;;;;29.35;40.55;99079.84;4859649;29;20028;-42
2023/07/20 02:50:33;;;;;;;7.18;4.78;;;;;;;29.44;40.81;99080.53;4859859;29;20078;-41
2023/07/20 02:52:59;;;;;;;8.10;4.53;;;;;;;29.44;40.71;99080.53;4859342;29;20413;-41
2023/07/20 02:55:24;;;;;;;11.45;4.72;;;;;;;29.65;39.88;99091.31;4859288;29;20025;-43
2023/07/20 02:57:50;;;;;;;8.52;5.07;;;;;;;29.98;39.45;99076.59;4859229;29;20048;-44
2023/07/20 03:00:16;;;;;;;14.68;6.10;;;;;;;28.67;42.36;99073.00;4860090;29;20033;-43
2023/07/20 03:02:41;;;;;;;9.18;5.63;;;;;;;28.36;42.89;99066.06;4860294;29;20044;-45
2023/07/20 03:05:07;;;;;;;11.07;5.32;;;;;;;28.51;43.17;99070.09;4860022;29;20026;-41
2023/07/20 03:07:33;;;;;;;10.57;5.57;;;;;;;28.56;43.13;99064.44;4859657;29;20026;-42
2023/07/20 03:09:58;;;;;;;11.82;5.55;;;;;;;28.71;42.49;99067.63;4859958;29;20439;-43
2023/07/20 03:12:24;;;;;;;9.82;5.63;;;;;;;29.20;41.01;99076.66;4859759;29;20036;-42
2023/07/20 03:14:50;;;;;;;10.68;5.47;;;;;;;29.03;41.04;99079.63;4859859;29;20053;-41
2023/07/20 03:17:15;;;;;;;15.05;5.90;;;;;;;28.28;43.08;99075.19;4859537;29;20483;-42
2023/07/20 03:19:41;;;;;;;12.13;5.55;;;;;;;28.28;43.17;99078.72;4859682;29;20025;-45
2023/07/20 03:22:06;;;;;;;15.25;5.70;;;;;;;28.50;43.12;99070.44;4860008;29;20029;-42
2023/07/20 03:24:32;;;;;;;13.50;5.82;;;;;;;28.58;43.01;99064.09;4859609;29;20166;-45
2023/07/20 03:26:58;;;;;;;12.70;5.70;;;;;;;28.75;42.89;99065.81;4859636;29;20074;-44
2023/07/20 03:29:23;;;;;;;12.52;5.78;;;;;;;28.95;41.65;99067.66;4859279;29;20053;-44
2023/07/20 03:31:50;;;;;;;12.13;5.78;;;;;;;29.04;41.47;99071.06;4859740;29;20462;-43
2023/07/20 03:34:15;;;;;;;12.25;5.88;;;;;;;29.50;40.25;99075.59;4859191;29;20486;-42
2023/07/20 03:36:41;;;;;;;12.55;6.45;;;;;;;29.12;41.13;99057.59;4859487;29;20033;-43
2023/07/20 03:39:06;;;;;;;11.88;5.88;;;;;;;28.72;42.34;99061.81;4859579;29;20097;-44
2023/07/20 03:41:32;;;;;;;26.60;16.42;;;;;;;28.76;42.66;99062.75;4859239;29;20025;-43
2023/07/20 03:43:57;;;;;;;21.40;14.45;;;;;;;28.80;42.50;99051.91;4859473;29;20115;-46
2023/07/20 03:46:23;;;;;;;17.92;11.30;;;;;;;28.97;42.38;99048.94;4859296;29;20109;-43
2023/07/20 03:48:48;;;;;;;10.52;7.28;;;;;;;29.27;41.91;99053.41;4859079;29;20029;-42
2023/07/20 03:51:13;;;;;;;12.40;6.15;;;;;;;29.28;41.67;99047.53;4858519;29;20017;-43
2023/07/20 03:53:39;;;;;;;9.32;5.68;;;;;;;29.47;42.14;99055.16;4858721;29;20029;-46
2023/07/20 03:56:05;;;;;;;10.93;5.90;;;;;;;29.61;41.35;99055.59;4858502;29;20125;-42
2023/07/20 03:58:31;;;;;;;10.93;5.80;;;;;;;30.45;40.25;99050.44;4858277;29;20463;-41
2023/07/20 04:00:57;;;;;;;11.70;6.32;;;;;;;29.76;42.42;99061.53;4858333;29;20541;-42
2023/07/20 04:03:24;;;;;;;9.27;6.18;;;;;;;29.61;42.21;99063.03;4858317;29;20025;-43
2023/07/20 04:05:50;;;;;;;10.63;5.53;;;;;;;29.75;41.17;99063.44;4858872;29;20033;-42
2023/07/20 04:08:15;;;;;;;13.38;6.18;;;;;;;29.97;40.76;99061.31;4857526;29;20451;-42
2023/07/20 04:10:44;;;;;;;12.02;5.90;;;;;;;30.34;40.09;99070.16;4856579;29;20056;-42
2023/07/20 04:13:09;;;;;;;15.65;6.28;;;;;;;30.50;39.80;99066.63;4856401;29;20382;-43
2023/07/20 04:15:35;;;;;;;11.30;6.40;;;;;;;31.23;38.31;99057.03;4856890;29;20037;-44
2023/07/20 04:18:00;;;;;;;25.35;15.82;;;;;;;30.80;38.95;99065.03;4857405;29;20032;-46
2023/07/20 04:20:26;;;;;;;31.30;19.63;;;;;;;30.86;39.64;99062.81;4857565;29;20474;-42
2023/07/20 04:22:52;;;;;;;11.77;6.55;;;;;;;30.88;40.23;99070.69;4857699;29;20143;-44
2023/07/20 04:25:18;;;;;;;16.27;6.97;;;;;;;31.17;40.45;99067.50;4857899;29;20553;-41
2023/07/20 04:27:43;;;;;;;14.98;7.38;;;;;;;31.17;39.14;99075.75;4857800;29;20109;-43
2023/07/20 04:30:11;;;;;;;14.48;6.70;;;;;;;31.32;38.76;99073.31;4858131;29;20033;-44
2023/07/20 04:32:37;;;;;;;15.68;7.00;;;;;;;31.82;38.19;99081.88;4857943;29;20327;-43
2023/07/20 04:35:06;;;;;;;18.92;6.60;;;;;;;31.47;37.99;99082.69;4857753;29;20025;-43
2023/07/20 04:37:32;;;;;;;9.88;5.70;;;;;;;31.34;37.81;99079.28;4857890;29;20021;-42
2023/07/20 04:39:57;;;;;;;10.88;5.40;;;;;;;31.01;37.67;99080.47;4857977;29;20520;-43
2023/07/20 04:42:22;;;;;;;9.75;5.07;;;;;;;31.16;37.67;99079.63;4857555;29;20052;-42
2023/07/20 04:44:48;;;;;;;11.52;5.80;;;;;;;31.05;37.83;99075.06;4858002;29;20025;-42
2023/07/20 04:47:13;;;;;;;11.88;5.28;;;;;;;31.05;38.19;99086.03;4857931;29;20158;-42
2023/07/20 04:49:39;;;;;;;9.30;5.00;;;;;;;31.35;37.50;99086.34;4857371;29;20017;-43
2023/07/20 04:52:05;;;;;;;12.32;4.95;;;;;;;32.12;36.46;99091.16;4868255;29;20450;-43
2023/07/20 04:54:30;;;;;;;9.73;5.20;;;;;;;31.66;37.39;99099.25;4876544;29;20025;-43
2023/07/20 04:56:56;;;;;;;7.15;4.72;;;;;;;31.72;36.96;99097.78;4864196;29;20101;-45
2023/07/20 04:59:21;;;;;;;9.35;5.10;;;;;;;31.66;37.20;99092.91;4867554;29;20032;-43
2023/07/20 05:01:46;;;;;;;11.02;5.10;;;;;;;32.27;36.05;99105.16;4869204;29;20386;-44
2023/07/20 05:04:12;;;;;;;35.05;23.48;;;;;;;32.32;36.04;99096.59;4861124;29;20029;-43
2023/07/20 05:06:38;;;;;;;7.82;6.03;;;;;;;32.81;34.99;99098.66;4857909;29;20029;-43
2023/07/20 05:09:05;;;;;;;10.60;5.22;;;;;;;33.21;34.45;99099.31;4856936;29;20135;-43
2023/07/20 05:11:30;;;;;;;8.35;4.80;;;;;;;33.56;33.76;99099.00;4855590;29;20079;-44
2023/07/20 05:13:56;;;;;;;10.00;5.20;;;;;;;33.28;34.57;99099.41;4858491;29;20173;-44
2023/07/20 05:16:21;;;;;;;8.70;5.20;;;;;;;33.35;34.67;99101.47;4857967;29;20017;-42
2023/07/20 05:18:47;;;;;;;23.48;16.17;;;;;;;33.26;34.53;99091.53;4858437;29;20025;-43
2023/07/20 05:21:13;;;;;;;11.40;5.68;;;;;;;33.40;33.95;99090.91;4857603;29;20026;-43
2023/07/20 05:23:38;;;;;;;7.55;5.30;;;;;;;33.05;34.62;99091.97;4857602;29;20074;-43
2023/07/20 05:26:04;;;;;;;10.43;5.47;;;;;;;33.91;33.66;99099.84;4857944;29;20581;-45
2023/07/20 05:28:29;;;;;;;8.90;5.50;;;;;;;33.74;33.92;99096.53;4848247;29;20513;-42
2023/07/20 05:30:55;;;;;;;9.25;4.88;;;;;;;33.71;34.46;99091.75;4837999;29;20467;-44
2023/07/20 05:33:21;;;;;;;12.02;5.05;;;;;;;33.98;33.16;99088.91;4838252;29;20112;-47
2023/07/20 05:35:47;;;;;;;10.52;5.20;;;;;;;34.19;32.72;99091.91;4839150;29;20135;-44
2023/07/20 05:38:13;;;;;;;11.75;5.35;;;;;;;34.12;32.65;99093.78;4838846;29;20169;-43
2023/07/20 05:40:45;;;;;;;12.98;5.50;;;;;;;34.52;32.19;99083.94;4838278;29;20220;-42
2023/07/20 05:43:11;;;;;;;8.23;5.10;;;;;;;35.23;31.73;99078.25;4838706;29;20109;-42
2023/07/20 05:45:37;;;;;;;10.23;5.38;;;;;;;35.23;31.63;99081.00;4837837;29;20029;-42
2023/07/20 05:48:02;;;;;;;11.68;5.18;;;;;;;35.15;31.84;99082.91;4838531;29;20033;-43
2023/07/20 05:50:28;;;;;;;10.57;4.78;;;;;;;35.15;31.50;99074.59;4838470;29;20186;-45
2023/07/20 05:52:54;;;;;;;8.70;4.47;;;;;;;35.36;30.38;99070.41;4838867;29;20566;-44
2023/07/20 05:55:19;;;;;;;7.00;4.53;;;;;;;35.77;29.58;99061.91;4838156;29;20022;-47
2023/07/20 05:57:45;;;;;;;6.47;4.60;;;;;;;35.98;29.71;99064.75;4837442;29;20491;-45
2023/07/20 06:00:12;;;;;;;8.68;4.70;;;;;;;36.03;29.17;99062.78;4837493;29;20025;-43
2023/07/20 06:02:40;;;;;;;9.30;5.03;;;;;;;35.93;29.48;99061.56;4837562;29;20037;-43
2023/07/20 06:05:09;;;;;;;7.55;4.63;;;;;;;35.93;29.72;99061.56;4837914;29;20032;-42
2023/07/20 06:07:37;;;;;;;9.05;4.72;;;;;;;36.05;29.47;99050.13;4822054;29;20132;-44
2023/07/20 06:10:02;;;;;;;11.30;4.82;;;;;;;36.24;29.47;99045.47;4821936;29;20026;-44
2023/07/20 06:12:28;;;;;;;11.07;4.75;;;;;;;37.00;27.92;99047.03;4838948;29;20030;-44
2023/07/20 06:14:54;;;;;;;8.07;4.72;;;;;;;36.24;28.88;99039.91;4840337;29;20037;-43
2023/07/20 06:17:19;;;;;;;6.35;4.38;;;;;;;36.27;28.67;99041.88;4842196;29;20026;-43
2023/07/20 06:19:45;;;;;;;5.53;4.38;;;;;;;36.45;29.02;99033.59;4842173;29;20026;-44
2023/07/20 06:22:10;;;;;;;7.68;4.30;;;;;;;36.68;28.27;99047.09;4842218;29;20025;-43
2023/07/20 06:24:35;;;;;;;8.20;4.97;;;;;;;37.31;27.70;99041.84;4841840;29;20103;-43
2023/07/20 06:27:01;;;;;;;8.63;4.50;;;;;;;37.71;26.74;99034.16;4841464;29;20042;-47
2023/07/20 06:29:26;;;;;;;9.70;4.72;;;;;;;36.80;27.94;99032.81;4840683;29;20049;-47
2023/07/20 06:31:52;;;;;;;9.35;5.07;;;;;;;36.68;28.38;99036.00;4840783;29;20109;-44
2023/07/20 06:34:17;;;;;;;7.60;4.70;;;;;;;36.97;27.88;99040.28;4841043;29;20022;-45
2023/07/20 06:36:42;;;;;;;7.63;4.53;;;;;;;37.48;27.69;99032.66;4841118;29;20033;-44
2023/07/20 06:39:08;;;;;;;7.55;4.43;;;;;;;38.61;26.56;99039.16;4840926;29;20034;-44
2023/07/20 06:41:33;;;;;;;5.57;4.32;;;;;;;38.66;26.06;99031.16;4841260;29;20097;-46
2023/07/20 06:43:59;;;;;;;6.82;4.65;;;;;;;38.64;26.17;99036.34;4841758;29;20514;-43
2023/07/20 06:46:26;;;;;;;10.15;4.65;;;;;;;38.71;25.84;99032.72;4842142;29;20025;-43
2023/07/20 06:48:51;;;;;;;7.65;4.60;;;;;;;38.78;25.64;99035.41;4841773;29;20038;-44
2023/07/20 06:51:17;;;;;;;9.15;5.07;;;;;;;38.52;26.01;99034.06;4841435;29;20030;-44
2023/07/20 06:53:43;;;;;;;9.10;4.25;;;;;;;39.62;24.37;99033.34;4841643;29;20131;-46
2023/07/20 06:56:08;;;;;;;6.63;4.22;;;;;;;39.58;25.18;99027.03;4841332;29;20025;-44
2023/07/20 06:58:34;;;;;;;5.82;4.18;;;;;;;39.41;24.80;99032.41;4841313;29;20026;-45
2023/07/20 07:01:05;;;;;;;7.13;4.13;;;;;;;39.48;24.96;99023.97;4841702;29;20037;-45
2023/07/20 07:03:30;;;;;;;6.72;4.15;;;;;;;39.63;25.14;99024.56;4841986;29;20510;-44
2023/07/20 07:05:56;;;;;;;6.72;4.32;;;;;;;40.58;23.69;99028.34;4842019;29;20028;-45
2023/07/20 07:08:21;;;;;;;8.68;4.60;;;;;;;40.45;23.54;99030.19;4841745;29;20028;-44
2023/07/20 07:10:47;;;;;;;6.53;4.00;;;;;;;40.13;24.18;99013.94;4842145;29;20033;-44
2023/07/20 07:13:12;;;;;;;7.07;4.45;;;;;;;39.91;24.40;99028.22;4841833;29;20033;-47
2023/07/20 07:15:38;;;;;;;6.70;4.22;;;;;;;39.98;24.47;99035.66;4841965;29;20029;-44
2023/07/20 07:18:03;;;;;;;7.28;4.20;;;;;;;40.14;24.34;99027.47;4841746;29;20034;-44
2023/07/20 07:20:29;;;;;;;8.65;4.35;;;;;;;41.04;23.20;99023.16;4841596;29;20026;-46
2023/07/20 07:22:55;;;;;;;5.05;4.00;;;;;;;40.63;23.41;99013.13;4841380;29;20505;-43
2023/07/20 07:25:21;;;;;;;7.72;4.30;;;;;;;40.44;23.50;99018.25;4840661;29;20040;-46
2023/07/20 07:27:46;;;;;;;7.72;3.90;;;;;;;40.33;24.17;99017.63;4840705;29;20038;-43
2023/07/20 07:30:12;;;;;;;5.93;4.00;;;;;;;40.50;23.85;99017.75;4841437;29;20112;-42
2023/07/20 07:32:37;;;;;;;6.18;4.07;;;;;;;40.90;23.34;99023.44;4840905;29;20034;-47
2023/07/20 07:35:04;;;;;;;7.80;4.50;;;;;;;40.91;22.94;99019.44;4841445;29;20086;-48
2023/07/20 07:37:29;;;;;;;6.82;3.80;;;;;;;39.98;22.77;99013.38;4841269;29;20022;-43
2023/07/20 07:39:55;;;;;;;8.07;3.75;;;;;;;39.41;23.84;99012.09;4841481;29;20451;-42
2023/07/20 07:42:21;;;;;;;11.00;3.90;;;;;;;39.38;23.70;99004.63;4840945;29;20497;-44
2023/07/20 07:44:46;;;;;;;7.05;4.25;;;;;;;39.61;23.87;99007.50;4841255;29;20037;-43
2023/07/20 07:47:12;;;;;;;7.45;4.00;;;;;;;39.76;24.42;99004.53;4841127;29;20471;-44
2023/07/20 07:49:37;;;;;;;5.68;4.20;;;;;;;39.77;24.04;99003.31;4841329;29;20026;-42
2023/07/20 07:52:03;;;;;;;7.75;3.90;;;;;;;40.12;23.29;99001.22;4840925;29;20372;-45
2023/07/20 07:54:29;;;;;;;6.75;4.07;;;;;;;40.38;23.17;99002.41;4840813;29;20034;-44
2023/07/20 07:56:54;;;;;;;8.95;4.05;;;;;;;40.98;23.17;99008.16;4840796;29;20027;-45
2023/07/20 07:59:20;;;;;;;6.72;3.80;;;;;;;41.15;21.90;99001.44;4841021;29;20073;-43
2023/07/20 08:01:45;;;;;;;7.60;4.40;;;;;;;40.67;23.16;99011.09;4841145;29;20030;-43
2023/07/20 08:04:11;;;;;;;7.68;4.35;;;;;;;40.92;22.63;99015.41;4841213;29;20029;-46
2023/07/20 08:06:36;;;;;;;7.35;3.88;;;;;;;41.16;22.16;99014.16;4840860;29;20030;-44
2023/07/20 08:09:03;;;;;;;8.00;4.03;;;;;;;41.35;22.36;99007.00;4840821;29;20168;-44
2023/07/20 08:11:30;;;;;;;5.30;4.18;;;;;;;40.63;22.34;99004.75;4840703;29;20032;-44
2023/07/20 08:13:56;;;;;;;6.95;4.20;;;;;;;40.48;23.02;99015.41;4840451;29;20033;-45
2023/07/20 08:16:22;;;;;;;5.65;3.63;;;;;;;39.83;23.59;99009.97;4840412;29;20038;-42
2023/07/20 08:18:47;;;;;;;8.98;4.75;;;;;;;39.70;23.55;99009.78;4840789;29;20078;-43
2023/07/20 08:21:12;;;;;;;9.00;4.13;;;;;;;40.13;23.47;99011.16;4840522;29;20037;-43
2023/07/20 08:23:38;;;;;;;6.55;4.20;;;;;;;40.54;23.11;99015.72;4840699;29;20382;-45
2023/07/20 08:26:03;;;;;;;6.63;3.88;;;;;;;40.75;22.58;99006.16;4840461;29;20025;-44
2023/07/20 08:28:29;;;;;;;5.68;4.20;;;;;;;40.62;22.77;99009.56;4840320;29;20046;-44
2023/07/20 08:30:54;;;;;;;6.85;4.10;;;;;;;39.77;23.77;99008.88;4840509;29;20353;-44
2023/07/20 08:33:20;;;;;;;5.10;3.78;;;;;;;39.44;23.41;99009.31;4840495;29;20037;-45
2023/07/20 08:35:46;;;;;;;6.57;4.20;;;;;;;39.64;23.52;99014.22;4840431;29;20041;-44
2023/07/20 08:38:12;;;;;;;8.10;4.50;;;;;;;39.38;23.37;99022.09;4840147;29;20117;-45
2023/07/20 08:40:43;;;;;;;11.80;5.22;;;;;;;39.45;23.74;99019.25;4840114;29;20164;-44
2023/07/20 08:43:10;;;;;;;5.95;4.15;;;;;;;39.81;23.15;99021.56;4840010;29;20034;-44
2023/07/20 08:45:38;;;;;;;8.48;4.80;;;;;;;40.37;22.95;99020.38;4839825;29;20033;-45
2023/07/20 08:48:05;;;;;;;7.47;4.10;;;;;;;40.91;22.56;99005.50;4839710;29;20126;-47
2023/07/20 08:50:31;;;;;;;6.43;4.13;;;;;;;40.84;22.80;99010.00;4839625;29;20144;-46
2023/07/20 08:52:58;;;;;;;8.68;4.20;;;;;;;41.19;22.55;99013.31;4839548;29;20030;-47
2023/07/20 08:55:26;;;;;;;5.67;4.00;;;;;;;41.73;21.77;99000.25;4839580;29;20034;-44
2023/07/20 08:57:54;;;;;;;6.45;4.25;;;;;;;41.11;22.51;98997.94;4839397;29;20795;-46
2023/07/20 09:00:21;;;;;;;10.02;4.45;;;;;;;40.73;22.85;99001.00;4839352;29;20042;-46
2023/07/20 09:02:53;;;;;;;7.22;4.70;;;;;;;41.14;22.76;98990.69;4839425;29;20123;-45
2023/07/20 09:05:20;;;;;;;8.20;4.63;;;;;;;41.54;22.47;98991.47;4839711;29;20267;-44
2023/07/20 09:07:45;;;;;;;8.18;4.38;;;;;;;41.99;21.92;98985.28;4822947;29;20078;-44
2023/07/20 09:10:12;;;;;;;6.47;4.47;;;;;;;41.16;22.67;98982.69;4839351;29;20118;-45
2023/07/20 09:12:46;;;;;;;6.25;4.38;;;;;;;40.48;23.33;98970.00;4839325;29;20057;-44
2023/07/20 09:15:12;;;;;;;6.70;4.15;;;;;;;40.52;22.99;98967.94;4839491;29;20067;-46
2023/07/20 09:17:38;;;;;;;5.32;4.40;;;;;;;40.58;23.34;98961.47;4839259;29;20053;-46
2023/07/20 09:20:07;;;;;;;7.72;4.45;;;;;;;40.65;22.93;98963.31;4839401;29;20062;-44
2023/07/20 09:22:34;;;;;;;7.85;4.70;;;;;;;41.31;22.58;98966.47;4839604;29;20469;-46
2023/07/20 09:24:59;;;;;;;5.40;4.13;;;;;;;41.06;23.35;98959.38;4839138;29;20061;-44
2023/07/20 09:27:46;;;;;;;6.57;4.30;;;;;;;41.13;22.93;98952.88;4836362;29;20459;-43
2023/07/20 09:30:13;;;;;;;8.85;4.32;;;;;;;41.38;22.64;98944.00;4839260;29;20038;-47
2023/07/20 09:32:47;;;;;;;7.03;4.55;;;;;;;41.17;23.16;98939.63;4838947;29;20093;-45
2023/07/20 09:35:17;;;;;;;7.13;4.50;;;;;;;41.46;22.41;98927.88;4839031;29;20050;-44
2023/07/20 09:37:55;;;;;;;9.82;4.50;;;;;;;41.04;23.20;98940.28;4839670;29;20586;-45
2023/07/20 09:40:21;;;;;;;5.70;4.37;;;;;;;40.63;23.24;98937.88;4839172;29;20037;-48
2023/07/20 09:42:47;;;;;;;8.23;4.43;;;;;;;40.45;23.01;98933.41;4839088;29;20037;-46
2023/07/20 09:45:13;;;;;;;6.72;4.38;;;;;;;40.73;22.75;98928.53;4839026;29;20533;-47
2023/07/20 09:47:39;;;;;;;6.40;4.57;;;;;;;41.09;22.97;98919.47;4839222;29;20044;-45
2023/07/20 09:50:10;;;;;;;6.03;4.32;;;;;;;41.59;22.52;98923.97;4841146;29;20064;-46
2023/07/20 09:52:39;;;;;;;5.95;4.10;;;;;;;41.67;22.95;98921.03;4842675;29;20038;-44
2023/07/20 09:55:06;;;;;;;5.28;4.60;;;;;;;41.15;23.25;98920.53;4842542;29;20044;-45
2023/07/20 09:57:34;;;;;;;7.30;4.20;;;;;;;40.87;23.13;98918.34;4842613;29;20483;-43
2023/07/20 09:59:59;;;;;;;5.22;4.18;;;;;;;41.02;22.65;98916.81;4842637;29;20034;-48
2023/07/20 10:02:33;;;;;;;8.18;4.38;;;;;;;40.67;23.56;98904.34;4842338;29;20417;-46
2023/07/20 10:05:03;;;;;;;5.57;4.60;;;;;;;41.20;22.73;98900.53;4841926;29;20057;-47
2023/07/20 10:07:30;;;;;;;8.00;4.70;;;;;;;39.83;24.65;98909.75;4842114;29;20037;-44
2023/07/20 10:09:59;;;;;;;7.65;4.70;;;;;;;39.28;24.77;98904.19;4842367;29;20042;-44
2023/07/20 10:12:27;;;;;;;8.85;4.63;;;;;;;39.49;24.38;98896.78;4842518;29;20066;-45
2023/07/20 10:15:26;;;;;;;5.65;4.22;;;;;;;39.62;24.43;98894.16;4842539;29;20029;-45
2023/07/20 10:18:12;;;;;;;11.70;4.85;;;;;;;40.06;23.90;98895.06;4836028;29;20452;-47
2023/07/20 10:20:41;;;;;;;7.15;4.32;;;;;;;40.80;23.84;98875.44;4841761;29;20460;-44
2023/07/20 10:23:06;;;;;;;8.32;4.70;;;;;;;40.52;23.96;98871.19;4841756;29;20034;-46
2023/07/20 10:25:37;;;;;;;7.97;4.70;;;;;;;40.59;23.51;98868.25;4841810;29;20094;-43
2023/07/20 10:28:07;;;;;;;6.65;4.43;;;;;;;40.70;23.57;98873.63;4841716;29;20058;-44
2023/07/20 10:30:36;;;;;;;7.70;4.70;;;;;;;40.78;23.28;98861.13;4841897;29;20490;-45
2023/07/20 10:33:03;;;;;;;12.32;5.50;;;;;;;40.79;23.32;98859.91;4841654;29;20460;-45
2023/07/20 10:35:28;;;;;;;6.63;4.93;;;;;;;40.80;22.51;98867.06;4841764;29;20029;-43
2023/07/20 10:38:00;;;;;;;7.18;4.65;;;;;;;39.54;23.95;98857.31;4841627;29;20503;-46
2023/07/20 10:40:33;;;;;;;6.88;4.60;;;;;;;40.25;23.29;98849.78;4841909;29;20112;-46
2023/07/20 10:43:07;;;;;;;7.60;4.60;;;;;;;40.92;23.02;98850.88;4841499;29;20546;-44
2023/07/20 10:45:47;;;;;;;8.55;4.60;;;;;;;40.56;22.79;98851.63;4841768;29;20559;-47
2023/07/20 10:48:15;;;;;;;6.88;4.47;;;;;;;41.47;22.68;98837.31;4841480;29;20454;-46
2023/07/20 10:50:41;;;;;;;5.32;4.50;;;;;;;41.00;22.94;98843.94;4841836;29;20061;-44
2023/07/20 10:53:12;;;;;;;6.25;4.63;;;;;;;40.98;23.32;98846.38;4841539;29;20034;-46
2023/07/20 10:55:38;;;;;;;8.77;4.93;;;;;;;41.42;22.98;98841.44;4841508;29;20414;-45
2023/07/20 10:58:14;;;;;;;7.35;4.53;;;;;;;41.83;22.45;98845.63;4841800;29;20064;-42
2023/07/20 11:00:57;;;;;;;7.40;4.75;;;;;;;41.59;22.16;98836.63;4841536;29;20057;-43
2023/07/20 11:03:30;;;;;;;7.72;4.75;;;;;;;41.36;22.35;98832.00;4841647;29;20513;-45
2023/07/20 11:05:57;;;;;;;6.07;4.65;;;;;;;41.22;22.60;98819.97;4842281;29;20034;-45
2023/07/20 11:08:42;;;;;;;9.47;4.63;;;;;;;41.10;22.35;98830.97;4842367;29;20030;-44
2023/07/20 11:11:30;;;;;;;11.18;4.60;;;;;;;40.74;22.15;98818.56;4841715;29;20747;-45
2023/07/20 11:13:57;;;;;;;9.10;4.80;;;;;;;41.56;21.17;98821.53;4841180;29;20414;-49
2023/07/20 11:16:33;;;;;;;8.88;4.57;;;;;;;41.44;22.33;98824.25;4840940;29;20037;-44
2023/07/20 11:18:59;;;;;;;5.97;4.47;;;;;;;41.65;21.29;98817.38;4841268;29;20036;-45
2023/07/20 11:21:24;;;;;;;7.22;4.10;;;;;;;42.26;20.93;98818.59;4841325;29;20481;-44
2023/07/20 11:23:52;;;;;;;5.88;3.70;;;;;;;42.60;20.30;98818.06;4841070;29;20045;-44
2023/07/20 11:26:18;;;;;;;7.70;3.92;;;;;;;42.94;19.35;98814.66;4840698;29;20042;-46
2023/07/20 11:28:43;;;;;;;7.18;3.80;;;;;;;43.22;18.67;98812.19;4840569;29;20058;-43
2023/07/20 11:31:09;;;;;;;6.88;3.78;;;;;;;42.65;19.14;98800.75;4841039;29;20038;-45